sensor_id;sensor_type;location;lat;lon;timestamp;pressure;altitude;pressure_sealevel;temperature;humidity
5595;BME280;1003;48.002;7.788;2024-03-08T00:01:00;98402.03;;;-0.31;100.00
5595;BME280;1003;48.002;7.788;2024-03-08T00:03:27;98397.09;;;-0.32;100.00
5595;BME280;1003;48.002;7.788;2024-03-08T00:05:54;98399.53;;;-0.32;100.00
5595;BME280;1003;48.002;7.788;2024-03-08T00:08:22;98392.91;;;-0.35;100.00
5595;BME280;1003;48.002;7.788;2024-03-08T00:10:50;98391.22;;;-0.37;100.00
5595;BME280;1003;48.002;7.788;2024-03-08T00:13:17;98386.22;;;-0.39;100.00
5595;BME280;1003;48.002;7.788;2024-03-08T00:15:46;98377.88;;;-0.44;100.00
5595;BME280;1003;48.002;7.788;2024-03-08T00:18:13;98380.41;;;-0.42;100.00
5595;BME280;1003;48.002;7.788;2024-03-08T00:20:40;98373.16;;;-0.35;100.00
5595;BME280;1003;48.002;7.788;2024-03-08T00:23:07;98369.84;;;-0.35;100.00
5595;BME280;1003;48.002;7.788;2024-03-08T00:25:34;98377.13;;;-0.41;100.00
5595;BME280;1003;48.002;7.788;2024-03-08T00:28:01;98363.03;;;-0.47;100.00
5595;BME280;1003;48.002;7.788;2024-03-08T00:30:28;98371.28;;;-0.45;100.00
5595;BME280;1003;48.002;7.788;2024-03-08T00:32:58;98362.97;;;-0.50;100.00
5595;BME280;1003;48.002;7.788;2024-03-08T00:35:25;98358.84;;;-0.49;100.00
5595;BME280;1003;48.002;7.788;2024-03-08T00:37:52;98360.72;;;-0.38;100.00
5595;BME280;1003;48.002;7.788;2024-03-08T00:40:22;98354.91;;;-0.43;100.00
5595;BME280;1003;48.002;7.788;2024-03-08T00:42:49;98354.00;;;-0.45;100.00
5595;BME280;1003;48.002;7.788;2024-03-08T00:45:16;98351.53;;;-0.46;100.00
5595;BME280;1003;48.002;7.788;2024-03-08T00:47:43;98353.16;;;-0.48;100.00
5595;BME280;1003;48.002;7.788;2024-03-08T00:50:11;98353.91;;;-0.51;100.00
5595;BME280;1003;48.002;7.788;2024-03-08T00:52:39;98349.75;;;-0.54;100.00
5595;BME280;1003;48.002;7.788;2024-03-08T00:55:07;98347.31;;;-0.52;100.00
5595;BME280;1003;48.002;7.788;2024-03-08T00:57:36;98348.16;;;-0.50;100.00
5595;BME280;1003;48.002;7.788;2024-03-08T01:00:06;98347.53;;;-0.40;100.00
5595;BME280;1003;48.002;7.788;2024-03-08T01:02:37;98347.53;;;-0.40;100.00
5595;BME280;1003;48.002;7.788;2024-03-08T01:05:05;98300.59;;;-0.43;100.00
5595;BME280;1003;48.002;7.788;2024-03-08T01:07:34;98298.03;;;-0.47;100.00
5595;BME280;1003;48.002;7.788;2024-03-08T01:10:02;98297.03;;;-0.56;100.00
5595;BME280;1003;48.002;7.788;2024-03-08T01:12:29;98289.50;;;-0.63;100.00
5595;BME280;1003;48.002;7.788;2024-03-08T01:14:56;98293.66;;;-0.61;100.00
5595;BME280;1003;48.002;7.788;2024-03-08T01:17:24;98295.16;;;-0.67;100.00
5595;BME280;1003;48.002;7.788;2024-03-08T01:19:50;98291.06;;;-0.67;100.00
5595;BME280;1003;48.002;7.788;2024-03-08T01:22:19;98294.38;;;-0.66;100.00
5595;BME280;1003;48.002;7.788;2024-03-08T01:24:47;98293.56;;;-0.65;100.00
5595;BME280;1003;48.002;7.788;2024-03-08T01:27:14;98286.94;;;-0.68;100.00
5595;BME280;1003;48.002;7.788;2024-03-08T01:29:41;98293.69;;;-0.59;100.00
5595;BME280;1003;48.002;7.788;2024-03-08T01:32:08;98295.09;;;-0.70;100.00
5595;BME280;1003;48.002;7.788;2024-03-08T01:34:35;98289.91;;;-0.83;100.00
5595;BME280;1003;48.002;7.788;2024-03-08T01:37:02;98288.13;;;-0.90;100.00
5595;BME280;1003;48.002;7.788;2024-03-08T01:39:29;98292.03;;;-0.99;100.00
5595;BME280;1003;48.002;7.788;2024-03-08T01:41:57;98286.97;;;-1.06;100.00
5595;BME280;1003;48.002;7.788;2024-03-08T01:44:24;98284.31;;;-1.15;100.00
5595;BME280;1003;48.002;7.788;2024-03-08T01:46:53;98284.16;;;-1.22;100.00
5595;BME280;1003;48.002;7.788;2024-03-08T01:49:22;98284.88;;;-1.26;100.00
5595;BME280;1003;48.002;7.788;2024-03-08T01:51:50;98284.03;;;-1.28;100.00
5595;BME280;1003;48.002;7.788;2024-03-08T01:54:19;98280.69;;;-1.30;100.00
5595;BME280;1003;48.002;7.788;2024-03-08T01:56:47;98282.25;;;-1.34;100.00
5595;BME280;1003;48.002;7.788;2024-03-08T01:59:16;98278.16;;;-1.34;100.00
5595;BME280;1003;48.002;7.788;2024-03-08T02:01:45;98274.00;;;-1.35;100.00
5595;BME280;1003;48.002;7.788;2024-03-08T02:04:11;98273.16;;;-1.35;100.00
5595;BME280;1003;48.002;7.788;2024-03-08T02:06:38;98268.31;;;-1.34;100.00
5595;BME280;1003;48.002;7.788;2024-03-08T02:09:05;98267.47;;;-1.34;100.00
5595;BME280;1003;48.002;7.788;2024-03-08T02:11:33;98272.22;;;-1.42;100.00
5595;BME280;1003;48.002;7.788;2024-03-08T02:14:01;98277.72;;;-1.52;100.00
5595;BME280;1003;48.002;7.788;2024-03-08T02:16:31;98273.34;;;-1.64;100.00
5595;BME280;1003;48.002;7.788;2024-03-08T02:18:58;98273.75;;;-1.81;100.00
5595;BME280;1003;48.002;7.788;2024-03-08T02:21:27;98269.66;;;-1.81;100.00
5595;BME280;1003;48.002;7.788;2024-03-08T02:23:54;98265.66;;;-1.77;100.00
5595;BME280;1003;48.002;7.788;2024-03-08T02:26:22;98263.84;;;-1.83;100.00
5595;BME280;1003;48.002;7.788;2024-03-08T02:28:49;98257.22;;;-1.86;100.00
5595;BME280;1003;48.002;7.788;2024-03-08T02:31:16;98261.31;;;-1.88;100.00
5595;BME280;1003;48.002;7.788;2024-03-08T02:33:43;98256.16;;;-1.95;100.00
5595;BME280;1003;48.002;7.788;2024-03-08T02:36:13;98245.50;;;-1.96;100.00
5595;BME280;1003;48.002;7.788;2024-03-08T02:38:41;98243.03;;;-1.96;100.00
5595;BME280;1003;48.002;7.788;2024-03-08T02:43:44;98213.88;;;-1.79;100.00
5595;BME280;1003;48.002;7.788;2024-03-08T02:46:11;98199.06;;;-1.80;100.00
5595;BME280;1003;48.002;7.788;2024-03-08T02:48:39;98174.44;;;-1.80;100.00
5595;BME280;1003;48.002;7.788;2024-03-08T02:51:06;98178.34;;;-1.89;100.00
5595;BME280;1003;48.002;7.788;2024-03-08T02:53:34;98170.13;;;-1.89;100.00
5595;BME280;1003;48.002;7.788;2024-03-08T02:56:02;98155.50;;;-1.83;100.00
5595;BME280;1003;48.002;7.788;2024-03-08T02:58:30;98147.97;;;-1.91;100.00
5595;BME280;1003;48.002;7.788;2024-03-08T03:00:58;98140.41;;;-1.98;100.00
5595;BME280;1003;48.002;7.788;2024-03-08T03:03:25;98143.69;;;-1.98;100.00
5595;BME280;1003;48.002;7.788;2024-03-08T03:05:53;98146.03;;;-2.04;100.00
5595;BME280;1003;48.002;7.788;2024-03-08T03:08:22;98118.75;;;-2.12;100.00
5595;BME280;1003;48.002;7.788;2024-03-08T03:10:49;99103.53;;;-2.08;100.00
5595;BME280;1003;48.002;7.788;2024-03-08T03:13:18;99104.59;;;-2.02;100.00
5595;BME280;1003;48.002;7.788;2024-03-08T03:15:47;99111.97;;;-2.02;100.00
5595;BME280;1003;48.002;7.788;2024-03-08T03:18:14;99115.09;;;-2.06;100.00
5595;BME280;1003;48.002;7.788;2024-03-08T03:20:41;99109.16;;;-2.11;100.00
5595;BME280;1003;48.002;7.788;2024-03-08T03:23:10;99105.06;;;-2.11;100.00
5595;BME280;1003;48.002;7.788;2024-03-08T03:25:40;99106.69;;;-2.11;100.00
5595;BME280;1003;48.002;7.788;2024-03-08T03:28:07;99114.16;;;-2.09;100.00
5595;BME280;1003;48.002;7.788;2024-03-08T03:30:38;99114.16;;;-2.09;100.00
5595;BME280;1003;48.002;7.788;2024-03-08T03:33:05;99118.47;;;-2.04;100.00
5595;BME280;1003;48.002;7.788;2024-03-08T03:35:33;99116.66;;;-2.08;100.00
5595;BME280;1003;48.002;7.788;2024-03-08T03:38:01;99119.00;;;-2.11;100.00
5595;BME280;1003;48.002;7.788;2024-03-08T03:43:08;99132.66;;;-1.98;100.00
5595;BME280;1003;48.002;7.788;2024-03-08T03:45:39;99122.44;;;-2.07;100.00
5595;BME280;1003;48.002;7.788;2024-03-08T03:48:08;99124.06;;;-2.08;100.00
5595;BME280;1003;48.002;7.788;2024-03-08T03:50:36;99113.47;;;-2.05;100.00
5595;BME280;1003;48.002;7.788;2024-03-08T03:53:04;99111.75;;;-2.08;100.00
5595;BME280;1003;48.002;7.788;2024-03-08T03:58:11;99117.91;;;-1.97;100.00
5595;BME280;1003;48.002;7.788;2024-03-08T04:00:39;99120.34;;;-1.98;100.00
5595;BME280;1003;48.002;7.788;2024-03-08T04:03:06;99116.84;;;-2.03;100.00
5595;BME280;1003;48.002;7.788;2024-03-08T04:05:34;99131.13;;;-1.95;100.00
5595;BME280;1003;48.002;7.788;2024-03-08T04:08:00;99139.66;;;-1.87;100.00
5595;BME280;1003;48.002;7.788;2024-03-08T04:10:28;99130.66;;;-1.86;100.00
5595;BME280;1003;48.002;7.788;2024-03-08T04:12:55;99130.81;;;-1.81;100.00
5595;BME280;1003;48.002;7.788;2024-03-08T04:15:22;99139.75;;;-1.83;100.00
5595;BME280;1003;48.002;7.788;2024-03-08T04:17:50;99133.09;;;-1.86;100.00
5595;BME280;1003;48.002;7.788;2024-03-08T04:20:18;99131.31;;;-1.90;100.00
5595;BME280;1003;48.002;7.788;2024-03-08T04:22:45;99140.31;;;-1.91;100.00
5595;BME280;1003;48.002;7.788;2024-03-08T04:25:12;99135.22;;;-1.95;100.00
5595;BME280;1003;48.002;7.788;2024-03-08T04:27:39;99139.19;;;-1.99;100.00
5595;BME280;1003;48.002;7.788;2024-03-08T04:30:07;99123.25;;;-2.07;100.00
5595;BME280;1003;48.002;7.788;2024-03-08T04:32:34;99132.56;;;-2.00;100.00
5595;BME280;1003;48.002;7.788;2024-03-08T04:35:03;99137.47;;;-2.00;100.00
5595;BME280;1003;48.002;7.788;2024-03-08T04:37:30;99132.66;;;-1.98;100.00
5595;BME280;1003;48.002;7.788;2024-03-08T04:39:58;99132.50;;;-2.01;100.00
5595;BME280;1003;48.002;7.788;2024-03-08T04:42:25;99134.28;;;-1.99;100.00
5595;BME280;1003;48.002;7.788;2024-03-08T04:44:52;99131.81;;;-1.99;100.00
5595;BME280;1003;48.002;7.788;2024-03-08T04:47:20;99134.56;;;-1.91;100.00
5595;BME280;1003;48.002;7.788;2024-03-08T04:49:47;99136.22;;;-1.90;100.00
5595;BME280;1003;48.002;7.788;2024-03-08T04:52:15;99109.97;;;-1.90;100.00
5595;BME280;1003;48.002;7.788;2024-03-08T04:54:42;99107.50;;;-1.90;100.00
5595;BME280;1003;48.002;7.788;2024-03-08T04:57:10;99111.50;;;-1.93;100.00
5595;BME280;1003;48.002;7.788;2024-03-08T04:59:37;99110.53;;;-1.97;100.00
5595;BME280;1003;48.002;7.788;2024-03-08T05:02:04;99109.97;;;-1.90;100.00
5595;BME280;1003;48.002;7.788;2024-03-08T05:04:30;99125.91;;;-1.81;100.00
5595;BME280;1003;48.002;7.788;2024-03-08T05:06:57;99109.13;;;-1.90;100.00
5595;BME280;1003;48.002;7.788;2024-03-08T05:09:28;99112.16;;;-1.97;100.00
5595;BME280;1003;48.002;7.788;2024-03-08T05:11:57;99121.97;;;-1.99;100.00
5595;BME280;1003;48.002;7.788;2024-03-08T05:14:25;99118.47;;;-2.04;100.00
5595;BME280;1003;48.002;7.788;2024-03-08T05:16:52;99108.22;;;-2.15;100.00
5595;BME280;1003;48.002;7.788;2024-03-08T05:19:20;99117.88;;;-2.19;100.00
5595;BME280;1003;48.002;7.788;2024-03-08T05:21:49;99119.97;;;-2.28;100.00
5595;BME280;1003;48.002;7.788;2024-03-08T05:24:16;99121.34;;;-2.35;100.00
5595;BME280;1003;48.002;7.788;2024-03-08T05:26:46;99120.38;;;-2.39;100.00
5595;BME280;1003;48.002;7.788;2024-03-08T05:29:13;99121.16;;;-2.40;100.00
5595;BME280;1003;48.002;7.788;2024-03-08T05:31:47;99131.13;;;-2.36;100.00
5595;BME280;1003;48.002;7.788;2024-03-08T05:34:14;99125.47;;;-2.34;100.00
5595;BME280;1003;48.002;7.788;2024-03-08T05:36:41;99137.66;;;-2.37;100.00
5595;BME280;1003;48.002;7.788;2024-03-08T05:39:10;99131.53;;;-2.47;100.00
5595;BME280;1003;48.002;7.788;2024-03-08T05:41:37;99135.13;;;-2.39;100.00
5595;BME280;1003;48.002;7.788;2024-03-08T05:44:06;99139.47;;;-2.33;100.00
5595;BME280;1003;48.002;7.788;2024-03-08T05:46:33;99138.38;;;-2.40;100.00
5595;BME280;1003;48.002;7.788;2024-03-08T05:49:00;99144.03;;;-2.42;100.00
5595;BME280;1003;48.002;7.788;2024-03-08T05:51:31;99140.66;;;-2.44;100.00
5595;BME280;1003;48.002;7.788;2024-03-08T05:54:00;99143.06;;;-2.46;100.00
5595;BME280;1003;48.002;7.788;2024-03-08T05:56:28;99138.91;;;-2.47;100.00
5595;BME280;1003;48.002;7.788;2024-03-08T05:58:55;99138.91;;;-2.47;100.00
5595;BME280;1003;48.002;7.788;2024-03-08T06:01:25;99145.75;;;-2.40;100.00
5595;BME280;1003;48.002;7.788;2024-03-08T06:03:52;99147.69;;;-2.32;100.00
5595;BME280;1003;48.002;7.788;2024-03-08T06:06:21;99160.22;;;-2.26;100.00
5595;BME280;1003;48.002;7.788;2024-03-08T06:08:48;99155.84;;;-2.33;100.00
5595;BME280;1003;48.002;7.788;2024-03-08T06:11:16;99182.47;;;-2.25;100.00
5595;BME280;1003;48.002;7.788;2024-03-08T06:13:44;99189.50;;;-2.13;100.00
5595;BME280;1003;48.002;7.788;2024-03-08T06:16:11;99183.00;;;-2.11;100.00
5595;BME280;1003;48.002;7.788;2024-03-08T06:18:39;99193.00;;;-2.08;100.00
5595;BME280;1003;48.002;7.788;2024-03-08T06:21:07;99190.91;;;-1.99;100.00
5595;BME280;1003;48.002;7.788;2024-03-08T06:23:37;99183.81;;;-1.91;100.00
5595;BME280;1003;48.002;7.788;2024-03-08T06:26:05;99191.56;;;-1.82;100.00
5595;BME280;1003;48.002;7.788;2024-03-08T06:28:32;99202.50;;;-1.75;100.00
5595;BME280;1003;48.002;7.788;2024-03-08T06:31:00;99204.47;;;-1.67;100.00
5595;BME280;1003;48.002;7.788;2024-03-08T06:33:28;99205.59;;;-1.59;100.00
5595;BME280;1003;48.002;7.788;2024-03-08T06:35:57;99206.19;;;-1.43;100.00
5595;BME280;1003;48.002;7.788;2024-03-08T06:38:24;99212.63;;;-1.24;100.00
5595;BME280;1003;48.002;7.788;2024-03-08T06:40:51;99226.06;;;-0.95;100.00
5595;BME280;1003;48.002;7.788;2024-03-08T06:43:18;99290.53;;;-0.64;100.00
5595;BME280;1003;48.002;7.788;2024-03-08T06:45:45;99305.47;;;-0.37;100.00
5595;BME280;1003;48.002;7.788;2024-03-08T06:48:14;99302.97;;;-0.14;100.00
5595;BME280;1003;48.002;7.788;2024-03-08T06:50:43;99338.63;;;0.16;100.00
5595;BME280;1003;48.002;7.788;2024-03-08T06:53:11;99355.34;;;0.49;100.00
5595;BME280;1003;48.002;7.788;2024-03-08T06:55:39;99366.06;;;0.75;100.00
5595;BME280;1003;48.002;7.788;2024-03-08T06:58:06;99377.78;;;1.06;100.00
5595;BME280;1003;48.002;7.788;2024-03-08T07:00:33;99388.94;;;1.20;100.00
5595;BME280;1003;48.002;7.788;2024-03-08T07:03:00;99384.66;;;0.89;100.00
5595;BME280;1003;48.002;7.788;2024-03-08T07:05:27;99374.59;;;0.83;100.00
5595;BME280;1003;48.002;7.788;2024-03-08T07:07:54;99357.41;;;0.62;100.00
5595;BME280;1003;48.002;7.788;2024-03-08T07:10:23;99362.06;;;0.78;100.00
5595;BME280;1003;48.002;7.788;2024-03-08T07:12:51;99353.63;;;0.72;100.00
5595;BME280;1003;48.002;7.788;2024-03-08T07:15:19;99347.34;;;0.56;100.00
5595;BME280;1003;48.002;7.788;2024-03-08T07:17:47;99337.44;;;0.56;100.00
5595;BME280;1003;48.002;7.788;2024-03-08T07:20:14;99339.16;;;0.59;100.00
5595;BME280;1003;48.002;7.788;2024-03-08T07:22:44;99345.59;;;0.79;100.00
5595;BME280;1003;48.002;7.788;2024-03-08T07:25:14;99357.50;;;1.18;100.00
5595;BME280;1003;48.002;7.788;2024-03-08T07:27:49;99375.34;;;1.63;100.00
5595;BME280;1003;48.002;7.788;2024-03-08T07:30:17;99393.84;;;2.04;100.00
5595;BME280;1003;48.002;7.788;2024-03-08T07:32:58;99400.66;;;2.12;100.00
5595;BME280;1003;48.002;7.788;2024-03-08T07:35:25;99408.75;;;2.36;100.00
5595;BME280;1003;48.002;7.788;2024-03-08T07:37:52;99421.91;;;2.65;100.00
5595;BME280;1003;48.002;7.788;2024-03-08T07:40:20;99428.94;;;2.81;100.00
5595;BME280;1003;48.002;7.788;2024-03-08T07:42:48;99439.50;;;3.07;100.00
5595;BME280;1003;48.002;7.788;2024-03-08T07:45:15;99453.91;;;3.22;100.00
5595;BME280;1003;48.002;7.788;2024-03-08T07:47:43;99452.22;;;3.20;100.00
5595;BME280;1003;48.002;7.788;2024-03-08T07:50:10;99458.72;;;3.14;100.00
5595;BME280;1003;48.002;7.788;2024-03-08T07:52:41;99462.91;;;3.17;100.00
5595;BME280;1003;48.002;7.788;2024-03-08T07:55:09;99466.31;;;3.21;100.00
5595;BME280;1003;48.002;7.788;2024-03-08T07:57:36;99476.63;;;3.37;100.00
5595;BME280;1003;48.002;7.788;2024-03-08T08:00:07;99461.69;;;3.36;100.00
5595;BME280;1003;48.002;7.788;2024-03-08T08:02:34;99462.63;;;3.39;100.00
5595;BME280;1003;48.002;7.788;2024-03-08T08:05:01;99457.28;;;3.60;100.00
5595;BME280;1003;48.002;7.788;2024-03-08T08:07:29;99465.41;;;3.91;100.00
5595;BME280;1003;48.002;7.788;2024-03-08T08:09:56;99464.69;;;3.97;100.00
5595;BME280;1003;48.002;7.788;2024-03-08T08:12:23;99458.69;;;3.87;100.00
5595;BME280;1003;48.002;7.788;2024-03-08T08:14:50;99445.81;;;4.06;100.00
5595;BME280;1003;48.002;7.788;2024-03-08T08:17:18;99451.13;;;4.23;100.00
5595;BME280;1003;48.002;7.788;2024-03-08T08:19:48;99438.91;;;4.35;100.00
5595;BME280;1003;48.002;7.788;2024-03-08T08:22:15;99427.28;;;4.34;100.00
5595;BME280;1003;48.002;7.788;2024-03-08T08:24:43;99417.81;;;4.60;100.00
5595;BME280;1003;48.002;7.788;2024-03-08T08:27:11;99414.00;;;4.79;100.00
5595;BME280;1003;48.002;7.788;2024-03-08T08:29:38;99386.94;;;4.49;100.00
5595;BME280;1003;48.002;7.788;2024-03-08T08:32:05;99372.41;;;4.73;100.00
5595;BME280;1003;48.002;7.788;2024-03-08T08:34:34;99337.59;;;4.77;100.00
5595;BME280;1003;48.002;7.788;2024-03-08T08:37:00;99283.16;;;4.45;100.00
5595;BME280;1003;48.002;7.788;2024-03-08T08:39:27;99232.69;;;4.54;100.00
5595;BME280;1003;48.002;7.788;2024-03-08T08:41:54;99196.22;;;4.54;100.00
5595;BME280;1003;48.002;7.788;2024-03-08T08:44:22;99147.34;;;4.59;100.00
5595;BME280;1003;48.002;7.788;2024-03-08T08:46:48;99130.97;;;4.78;100.00
5595;BME280;1003;48.002;7.788;2024-03-08T08:49:15;99087.75;;;4.73;100.00
5595;BME280;1003;48.002;7.788;2024-03-08T08:51:50;99056.31;;;4.83;100.00
5595;BME280;1003;48.002;7.788;2024-03-08T08:54:17;99030.84;;;5.07;100.00
5595;BME280;1003;48.002;7.788;2024-03-08T08:56:44;99007.78;;;5.29;100.00
5595;BME280;1003;48.002;7.788;2024-03-08T08:59:12;99009.66;;;5.56;100.00
5595;BME280;1003;48.002;7.788;2024-03-08T09:01:40;98990.59;;;5.63;100.00
5595;BME280;1003;48.002;7.788;2024-03-08T09:04:07;98976.56;;;5.80;100.00
5595;BME280;1003;48.002;7.788;2024-03-08T09:06:34;98964.03;;;5.68;100.00
5595;BME280;1003;48.002;7.788;2024-03-08T09:09:03;98931.66;;;5.71;100.00
5595;BME280;1003;48.002;7.788;2024-03-08T09:11:30;98901.84;;;5.95;100.00
5595;BME280;1003;48.002;7.788;2024-03-08T09:13:57;98019.53;;;6.22;100.00
5595;BME280;1003;48.002;7.788;2024-03-08T09:16:24;98032.63;;;6.42;100.00
5595;BME280;1003;48.002;7.788;2024-03-08T09:18:52;98087.53;;;6.42;100.00
5595;BME280;1003;48.002;7.788;2024-03-08T09:21:19;98209.38;;;5.85;100.00
5595;BME280;1003;48.002;7.788;2024-03-08T09:23:45;98241.88;;;5.73;100.00
5595;BME280;1003;48.002;7.788;2024-03-08T09:26:14;98246.75;;;5.90;100.00
5595;BME280;1003;48.002;7.788;2024-03-08T09:28:41;98279.06;;;6.13;100.00
5595;BME280;1003;48.002;7.788;2024-03-08T09:31:08;98288.03;;;6.38;100.00
5595;BME280;1003;48.002;7.788;2024-03-08T09:33:37;98307.81;;;6.61;100.00
5595;BME280;1003;48.002;7.788;2024-03-08T09:36:06;98324.47;;;6.56;100.00
5595;BME280;1003;48.002;7.788;2024-03-08T09:38:33;98348.63;;;6.55;100.00
5595;BME280;1003;48.002;7.788;2024-03-08T09:41:00;98345.25;;;6.64;100.00
5595;BME280;1003;48.002;7.788;2024-03-08T09:43:31;98359.41;;;6.61;100.00
5595;BME280;1003;48.002;7.788;2024-03-08T09:45:58;98365.06;;;6.84;100.00
5595;BME280;1003;48.002;7.788;2024-03-08T09:48:26;98372.41;;;6.99;100.00
5595;BME280;1003;48.002;7.788;2024-03-08T09:50:54;98380.91;;;6.80;100.00
5595;BME280;1003;48.002;7.788;2024-03-08T09:53:22;98390.91;;;6.80;100.00
5595;BME280;1003;48.002;7.788;2024-03-08T09:55:49;98390.63;;;7.12;100.00
5595;BME280;1003;48.002;7.788;2024-03-08T09:58:17;98425.41;;;7.33;100.00
5595;BME280;1003;48.002;7.788;2024-03-08T10:01:03;98427.84;;;7.41;100.00
5595;BME280;1003;48.002;7.788;2024-03-08T10:03:31;98431.84;;;7.59;100.00
5595;BME280;1003;48.002;7.788;2024-03-08T10:05:59;98436.59;;;7.82;100.00
5595;BME280;1003;48.002;7.788;2024-03-08T10:08:27;98446.34;;;8.05;100.00
5595;BME280;1003;48.002;7.788;2024-03-08T10:10:55;98462.38;;;7.87;100.00
5595;BME280;1003;48.002;7.788;2024-03-08T10:13:25;98461.81;;;7.62;100.00
5595;BME280;1003;48.002;7.788;2024-03-08T10:15:53;98464.47;;;7.42;100.00
5595;BME280;1003;48.002;7.788;2024-03-08T10:18:22;98460.13;;;7.66;100.00
5595;BME280;1003;48.002;7.788;2024-03-08T10:21:03;98462.53;;;7.72;100.00
5595;BME280;1003;48.002;7.788;2024-03-08T10:23:36;98476.69;;;7.74;100.00
5595;BME280;1003;48.002;7.788;2024-03-08T10:26:11;98468.06;;;8.00;100.00
5595;BME280;1003;48.002;7.788;2024-03-08T10:28:41;98467.94;;;8.10;100.00
5595;BME280;1003;48.002;7.788;2024-03-08T10:31:08;98461.16;;;8.20;100.00
5595;BME280;1003;48.002;7.788;2024-03-08T10:33:38;98477.69;;;8.36;100.00
5595;BME280;1003;48.002;7.788;2024-03-08T10:36:08;98474.13;;;8.53;100.00
5595;BME280;1003;48.002;7.788;2024-03-08T10:38:37;98470.75;;;8.55;100.00
5595;BME280;1003;48.002;7.788;2024-03-08T10:41:05;98459.75;;;8.65;100.00
5595;BME280;1003;48.002;7.788;2024-03-08T10:43:52;98455.09;;;8.41;100.00
5595;BME280;1003;48.002;7.788;2024-03-08T10:46:38;98444.59;;;8.13;100.00
5595;BME280;1003;48.002;7.788;2024-03-08T10:49:17;98433.91;;;7.96;100.00
5595;BME280;1003;48.002;7.788;2024-03-08T10:51:45;98436.16;;;8.17;100.00
5595;BME280;1003;48.002;7.788;2024-03-08T10:54:14;98433.56;;;8.26;100.00
5595;BME280;1003;48.002;7.788;2024-03-08T10:56:43;98421.72;;;8.40;100.00
5595;BME280;1003;48.002;7.788;2024-03-08T10:59:11;98424.59;;;8.72;100.00
5595;BME280;1003;48.002;7.788;2024-03-08T11:01:39;98411.75;;;8.93;100.00
5595;BME280;1003;48.002;7.788;2024-03-08T11:04:06;98416.72;;;8.96;100.00
5595;BME280;1003;48.002;7.788;2024-03-08T11:06:45;98410.69;;;9.08;100.00
5595;BME280;1003;48.002;7.788;2024-03-08T11:09:28;98402.88;;;8.74;100.00
5595;BME280;1003;48.002;7.788;2024-03-08T11:12:22;98391.88;;;8.84;100.00
5595;BME280;1003;48.002;7.788;2024-03-08T11:15:03;98385.38;;;8.71;100.00
5595;BME280;1003;48.002;7.788;2024-03-08T11:17:47;98384.44;;;8.76;100.00
5595;BME280;1003;48.002;7.788;2024-03-08T11:20:17;98379.47;;;8.75;100.00
5595;BME280;1003;48.002;7.788;2024-03-08T11:22:52;98367.38;;;8.98;100.00
5595;BME280;1003;48.002;7.788;2024-03-08T11:25:36;98364.47;;;9.23;100.00
5595;BME280;1003;48.002;7.788;2024-03-08T11:28:09;98363.09;;;9.06;100.00
5595;BME280;1003;48.002;7.788;2024-03-08T11:30:46;98352.88;;;9.17;100.00
5595;BME280;1003;48.002;7.788;2024-03-08T11:33:15;98365.84;;;9.39;100.00
5595;BME280;1003;48.002;7.788;2024-03-08T11:35:42;98359.72;;;9.52;100.00
5595;BME280;1003;48.002;7.788;2024-03-08T11:38:12;98360.88;;;9.36;100.00
5595;BME280;1003;48.002;7.788;2024-03-08T11:40:42;98351.38;;;9.52;100.00
5595;BME280;1003;48.002;7.788;2024-03-08T11:43:09;98349.34;;;9.27;100.00
5595;BME280;1003;48.002;7.788;2024-03-08T11:45:36;98355.69;;;9.00;100.00
5595;BME280;1003;48.002;7.788;2024-03-08T11:48:04;98339.59;;;9.12;100.00
5595;BME280;1003;48.002;7.788;2024-03-08T11:50:31;98335.94;;;9.28;100.00
5595;BME280;1003;48.002;7.788;2024-03-08T11:53:03;98330.50;;;9.51;100.00
5595;BME280;1003;48.002;7.788;2024-03-08T11:55:32;98332.19;;;9.51;100.00
5595;BME280;1003;48.002;7.788;2024-03-08T11:58:05;98322.75;;;9.62;100.00
5595;BME280;1003;48.002;7.788;2024-03-08T12:00:34;98318.34;;;9.75;100.00
5595;BME280;1003;48.002;7.788;2024-03-08T12:03:06;98311.63;;;9.75;100.00
5595;BME280;1003;48.002;7.788;2024-03-08T12:05:34;98310.53;;;9.87;100.00
5595;BME280;1003;48.002;7.788;2024-03-08T12:08:02;98307.91;;;9.93;100.00
5595;BME280;1003;48.002;7.788;2024-03-08T12:10:32;98303.06;;;9.85;100.00
5595;BME280;1003;48.002;7.788;2024-03-08T12:13:00;98298.94;;;9.81;100.00
5595;BME280;1003;48.002;7.788;2024-03-08T12:15:29;98294.88;;;9.76;100.00
5595;BME280;1003;48.002;7.788;2024-03-08T12:17:59;98293.84;;;9.84;100.00
5595;BME280;1003;48.002;7.788;2024-03-08T12:20:28;98299.44;;;9.97;100.00
5595;BME280;1003;48.002;7.788;2024-03-08T12:22:57;98295.16;;;10.02;100.00
5595;BME280;1003;48.002;7.788;2024-03-08T12:25:27;98296.84;;;10.00;100.00
5595;BME280;1003;48.002;7.788;2024-03-08T12:28:08;98293.22;;;10.13;100.00
5595;BME280;1003;48.002;7.788;2024-03-08T12:30:46;98285.75;;;10.12;100.00
5595;BME280;1003;48.002;7.788;2024-03-08T12:33:14;98284.09;;;10.09;100.00
5595;BME280;1003;48.002;7.788;2024-03-08T12:35:51;98278.88;;;10.18;100.00
5595;BME280;1003;48.002;7.788;2024-03-08T12:38:20;98276.16;;;10.28;100.00
5595;BME280;1003;48.002;7.788;2024-03-08T12:40:51;98270.31;;;10.29;100.00
5595;BME280;1003;48.002;7.788;2024-03-08T12:43:23;98265.28;;;10.29;100.00
5595;BME280;1003;48.002;7.788;2024-03-08T12:45:50;98273.56;;;10.32;100.00
5595;BME280;1003;48.002;7.788;2024-03-08T12:48:18;98256.88;;;10.30;100.00
5595;BME280;1003;48.002;7.788;2024-03-08T12:50:46;98264.88;;;10.45;100.00
5595;BME280;1003;48.002;7.788;2024-03-08T12:53:13;98257.25;;;10.48;100.00
5595;BME280;1003;48.002;7.788;2024-03-08T12:55:40;98258.06;;;10.49;100.00
5595;BME280;1003;48.002;7.788;2024-03-08T12:58:07;98251.91;;;10.62;100.00
5595;BME280;1003;48.002;7.788;2024-03-08T13:00:36;98245.25;;;10.60;100.00
5595;BME280;1003;48.002;7.788;2024-03-08T13:03:05;98236.97;;;10.56;100.00
5595;BME280;1003;48.002;7.788;2024-03-08T13:05:35;98239.38;;;10.61;100.00
5595;BME280;1003;48.002;7.788;2024-03-08T13:08:05;98238.31;;;10.69;100.00
5595;BME280;1003;48.002;7.788;2024-03-08T13:10:38;98231.56;;;10.71;100.00
5595;BME280;1003;48.002;7.788;2024-03-08T13:13:05;98230.47;;;10.80;100.00
5595;BME280;1003;48.002;7.788;2024-03-08T13:15:32;98227.72;;;10.89;100.00
5595;BME280;1003;48.002;7.788;2024-03-08T13:18:00;98234.88;;;11.04;100.00
5595;BME280;1003;48.002;7.788;2024-03-08T13:20:28;98231.41;;;11.09;100.00
5595;BME280;1003;48.002;7.788;2024-03-08T13:22:55;98228.19;;;11.03;100.00
5595;BME280;1003;48.002;7.788;2024-03-08T13:25:22;98230.72;;;11.02;100.00
5595;BME280;1003;48.002;7.788;2024-03-08T13:27:49;98220.50;;;11.08;100.00
5595;BME280;1003;48.002;7.788;2024-03-08T13:30:16;98222.88;;;11.14;100.00